Time,TemperatureF,DewpointF,PressureIn,WindDirection,WindDirectionDegrees,WindSpeedMPH,WindSpeedGustMPH,Humidity,HourlyPrecipIn,Conditions,Clouds,dailyrainin,SolarRadiationWatts/m^2,SoftwareType,DateUTC
2013-06-09 00:13:00,80.9,75.0,30.09,ESE,114,0.0,-999.0,83,-99.99,,,0.01,0,weatherlink.com 1.10,2013-06-09 04:13:00,
2013-06-09 00:28:00,80.9,75.0,30.10,East,95,1.0,-999.0,83,-99.99,,,0.01,0,weatherlink.com 1.10,2013-06-09 04:28:00,
2013-06-09 00:43:00,80.8,76.0,30.10,ENE,78,3.0,-999.0,84,-99.99,,,0.01,0,weatherlink.com 1.10,2013-06-09 04:43:00,
2013-06-09 00:58:00,80.7,76.0,30.09,East,90,0.0,-999.0,85,-99.99,,,0.01,0,weatherlink.com 1.10,2013-06-09 04:58:00,
2013-06-09 01:13:00,80.6,76.0,30.09,ENE,76,7.0,-999.0,86,-99.99,,,0.01,0,weatherlink.com 1.10,2013-06-09 05:13:00,
2013-06-09 01:28:00,80.6,76.0,30.09,East,80,0.0,-999.0,86,-99.99,,,0.01,0,weatherlink.com 1.10,2013-06-09 05:28:00,
2013-06-09 01:43:00,80.5,76.0,30.08,East,83,3.0,-999.0,85,-99.99,,,0.01,0,weatherlink.com 1.10,2013-06-09 05:43:00,
2013-06-09 01:58:00,80.5,75.0,30.08,East,83,0.0,-999.0,84,-99.99,,,0.01,0,weatherlink.com 1.10,2013-06-09 05:58:00,
2013-06-09 02:13:00,80.4,75.0,30.07,SE,130,11.0,-999.0,84,-99.99,,,0.01,0,weatherlink.com 1.10,2013-06-09 06:13:00,
2013-06-09 02:29:00,80.4,75.0,30.07,ENE,71,2.0,-999.0,84,-99.99,,,0.01,0,weatherlink.com 1.10,2013-06-09 06:29:00,
2013-06-09 02:44:00,80.3,75.0,30.06,SE,146,0.0,-999.0,84,-99.99,,,0.02,0,weatherlink.com 1.10,2013-06-09 06:44:00,
2013-06-09 02:59:00,80.3,75.0,30.06,SE,135,2.0,-999.0,84,-99.99,,,0.02,0,weatherlink.com 1.10,2013-06-09 06:59:00,
2013-06-09 03:14:00,80.2,75.0,30.05,East,80,0.0,-999.0,84,-99.99,,,0.02,0,weatherlink.com 1.10,2013-06-09 07:14:00,
2013-06-09 03:29:00,80.1,75.0,30.05,SE,130,0.0,-999.0,83,-99.99,,,0.02,0,weatherlink.com 1.10,2013-06-09 07:29:00,
2013-06-09 03:44:00,80.1,75.0,30.05,ESE,113,4.0,-999.0,84,-99.99,,,0.02,0,weatherlink.com 1.10,2013-06-09 07:44:00,
2013-06-09 03:59:00,80.1,75.0,30.05,ESE,123,2.0,-999.0,83,-99.99,,,0.03,0,weatherlink.com 1.10,2013-06-09 07:59:00,
2013-06-09 04:14:00,80.0,74.0,30.05,ESE,108,5.0,-999.0,83,-99.99,,,0.03,0,weatherlink.com 1.10,2013-06-09 08:14:00,
2013-06-09 04:29:00,80.1,75.0,30.04,East,93,4.0,-999.0,84,-99.99,,,0.03,0,weatherlink.com 1.10,2013-06-09 08:29:00,
2013-06-09 04:44:00,79.9,75.0,30.04,ESE,103,0.0,-999.0,84,-99.99,,,0.03,0,weatherlink.com 1.10,2013-06-09 08:44:00,
2013-06-09 04:59:00,80.0,75.0,30.04,East,91,5.0,-999.0,84,-99.99,,,0.03,0,weatherlink.com 1.10,2013-06-09 08:59:00,
2013-06-09 05:14:00,79.9,75.0,30.04,SE,127,4.0,-999.0,84,-99.99,,,0.03,0,weatherlink.com 1.10,2013-06-09 09:14:00,
2013-06-09 05:29:00,79.9,75.0,30.04,East,81,1.0,-999.0,84,-99.99,,,0.03,0,weatherlink.com 1.10,2013-06-09 09:29:00,
2013-06-09 05:44:00,79.8,75.0,30.04,East,90,0.0,-999.0,84,-99.99,,,0.03,0,weatherlink.com 1.10,2013-06-09 09:44:00,
2013-06-09 05:59:00,79.7,75.0,30.04,ESE,123,0.0,-999.0,84,-99.99,,,0.04,0,weatherlink.com 1.10,2013-06-09 09:59:00,
2013-06-09 06:14:00,79.7,75.0,30.05,ESE,115,4.0,-999.0,85,-99.99,,,0.04,0,weatherlink.com 1.10,2013-06-09 10:14:00,
2013-06-09 06:29:00,79.8,75.0,30.05,ESE,117,0.0,-999.0,85,-99.99,,,0.04,5,weatherlink.com 1.10,2013-06-09 10:29:00,
2013-06-09 06:44:00,79.7,75.0,30.05,ESE,108,4.0,-999.0,84,-99.99,,,0.04,16,weatherlink.com 1.10,2013-06-09 10:44:00,
2013-06-09 06:59:00,80.1,75.0,30.05,East,96,5.0,-999.0,84,-99.99,,,0.04,40,weatherlink.com 1.10,2013-06-09 10:59:00,
2013-06-09 07:14:00,80.2,75.0,30.04,East,86,4.0,-999.0,84,-99.99,,,0.04,56,weatherlink.com 1.10,2013-06-09 11:14:00,
2013-06-09 07:29:00,80.5,75.0,30.05,East,96,0.0,-999.0,83,-99.99,,,0.05,141,weatherlink.com 1.10,2013-06-09 11:29:00,
2013-06-09 07:44:00,81.3,75.0,30.05,ESE,115,1.0,-999.0,82,-99.99,,,0.05,181,weatherlink.com 1.10,2013-06-09 11:44:00,
2013-06-09 07:59:00,82.1,75.0,30.06,SE,124,0.0,-999.0,80,-99.99,,,0.05,155,weatherlink.com 1.10,2013-06-09 11:59:00,
2013-06-09 08:14:00,82.1,75.0,30.06,ESE,112,5.0,-999.0,80,-99.99,,,0.05,165,weatherlink.com 1.10,2013-06-09 12:14:00,
2013-06-09 08:29:00,82.7,75.0,30.07,East,99,5.0,-999.0,78,-99.99,,,0.06,309,weatherlink.com 1.10,2013-06-09 12:29:00,
2013-06-09 08:44:00,83.0,75.0,30.07,SE,126,2.0,-999.0,77,-99.99,,,0.06,376,weatherlink.com 1.10,2013-06-09 12:44:00,
2013-06-09 08:59:00,83.5,76.0,30.08,SE,136,5.0,-999.0,77,-99.99,,,0.06,522,weatherlink.com 1.10,2013-06-09 12:59:00,
2013-06-09 09:14:00,83.8,75.0,30.08,ESE,111,1.0,-999.0,75,-99.99,,,0.07,473,weatherlink.com 1.10,2013-06-09 13:14:00,
2013-06-09 09:29:00,84.0,75.0,30.08,ENE,69,0.0,-999.0,75,-99.99,,,0.07,125,weatherlink.com 1.10,2013-06-09 13:29:00,
2013-06-09 09:44:00,82.6,76.0,30.09,SE,133,0.0,-999.0,79,-99.99,,,0.07,169,weatherlink.com 1.10,2013-06-09 13:44:00,
2013-06-09 09:59:00,83.7,77.0,30.08,ESE,123,4.0,-999.0,80,-99.99,,,0.07,710,weatherlink.com 1.10,2013-06-09 13:59:00,
2013-06-09 10:14:00,85.0,77.0,30.08,East,85,3.0,-999.0,76,-99.99,,,0.07,599,weatherlink.com 1.10,2013-06-09 14:14:00,
2013-06-09 10:29:00,84.8,76.0,30.08,NE,44,4.0,-999.0,74,-99.99,,,0.07,689,weatherlink.com 1.10,2013-06-09 14:29:00,
2013-06-09 10:44:00,85.4,76.0,30.08,East,94,0.0,-999.0,74,-99.99,,,0.07,754,weatherlink.com 1.10,2013-06-09 14:44:00,
2013-06-09 10:59:00,85.6,76.0,30.08,ESE,117,2.0,-999.0,73,-99.99,,,0.07,810,weatherlink.com 1.10,2013-06-09 14:59:00,
2013-06-09 11:14:00,85.4,75.0,30.08,ENE,68,4.0,-999.0,72,-99.99,,,0.07,621,weatherlink.com 1.10,2013-06-09 15:14:00,
2013-06-09 11:30:00,85.6,76.0,30.09,ENE,74,4.0,-999.0,73,-99.99,,,0.07,714,weatherlink.com 1.10,2013-06-09 15:30:00,
2013-06-09 11:45:00,85.7,76.0,30.09,East,88,1.0,-999.0,73,-99.99,,,0.07,1088,weatherlink.com 1.10,2013-06-09 15:45:00,
2013-06-09 12:00:00,86.1,76.0,30.09,ESE,123,1.0,-999.0,72,-99.99,,,0.07,954,weatherlink.com 1.10,2013-06-09 16:00:00,
2013-06-09 12:15:00,86.7,76.0,30.09,East,80,3.0,-999.0,71,-99.99,,,0.07,905,weatherlink.com 1.10,2013-06-09 16:15:00,
2013-06-09 12:30:00,86.7,76.0,30.10,East,85,4.0,-999.0,71,-99.99,,,0.07,990,weatherlink.com 1.10,2013-06-09 16:30:00,
2013-06-09 12:45:00,86.8,77.0,30.09,East,84,5.0,-999.0,73,-99.99,,,0.07,1023,weatherlink.com 1.10,2013-06-09 16:45:00,
2013-06-09 13:00:00,86.3,76.0,30.09,SE,129,5.0,-999.0,72,-99.99,,,0.08,974,weatherlink.com 1.10,2013-06-09 17:00:00,
2013-06-09 13:15:00,86.6,77.0,30.09,East,96,1.0,-999.0,72,-99.99,,,0.08,272,weatherlink.com 1.10,2013-06-09 17:15:00,
2013-06-09 13:30:00,87.0,77.0,30.09,ENE,78,10.0,-999.0,72,-99.99,,,0.08,332,weatherlink.com 1.10,2013-06-09 17:30:00,
2013-06-09 13:45:00,87.0,77.0,30.08,NE,55,5.0,-999.0,73,-99.99,,,0.08,1165,weatherlink.com 1.10,2013-06-09 17:45:00,
2013-06-09 14:00:00,84.5,77.0,30.08,East,88,1.0,-999.0,78,-99.99,,,0.08,988,weatherlink.com 1.10,2013-06-09 18:00:00,
2013-06-09 14:15:00,85.9,78.0,30.07,SSE,147,4.0,-999.0,77,-99.99,,,0.08,1148,weatherlink.com 1.10,2013-06-09 18:15:00,
2013-06-09 14:30:00,81.9,77.0,30.07,ESE,109,6.0,-999.0,85,-99.99,,,0.08,942,weatherlink.com 1.10,2013-06-09 18:30:00,
2013-06-09 14:45:00,83.8,78.0,30.07,North,355,7.0,-999.0,83,-99.99,,,0.08,1058,weatherlink.com 1.10,2013-06-09 18:45:00,
2013-06-09 15:00:00,82.8,78.0,30.07,East,84,3.0,-999.0,84,-99.99,,,0.08,940,weatherlink.com 1.10,2013-06-09 19:00:00,
2013-06-09 15:15:00,84.0,77.0,30.06,East,94,4.0,-999.0,80,-99.99,,,0.08,536,weatherlink.com 1.10,2013-06-09 19:15:00,
2013-06-09 15:30:00,84.5,77.0,30.05,ESE,102,0.0,-999.0,77,-99.99,,,0.08,179,weatherlink.com 1.10,2013-06-09 19:30:00,
2013-06-09 15:45:00,83.2,76.0,30.06,East,96,4.0,-999.0,78,-99.99,,,0.08,197,weatherlink.com 1.10,2013-06-09 19:45:00,
2013-06-09 16:00:00,81.0,77.0,30.05,ESE,123,0.0,-999.0,86,-99.99,,,0.08,404,weatherlink.com 1.10,2013-06-09 20:00:00,
2013-06-09 16:15:00,80.2,76.0,30.05,East,92,0.0,-999.0,88,-99.99,,,0.08,40,weatherlink.com 1.10,2013-06-09 20:15:00,
2013-06-09 16:30:00,78.3,75.0,30.05,East,85,0.0,-999.0,90,-99.99,,,0.08,26,weatherlink.com 1.10,2013-06-09 20:30:00,
2013-06-09 16:45:00,78.2,75.0,30.04,East,93,0.0,-999.0,91,-99.99,,,0.09,30,weatherlink.com 1.10,2013-06-09 20:45:00,
2013-06-09 17:00:00,78.1,76.0,30.04,ESE,106,0.0,-999.0,92,-99.99,,,0.09,30,weatherlink.com 1.10,2013-06-09 21:00:00,
2013-06-09 17:15:00,77.7,75.0,30.03,SSE,167,0.0,-999.0,92,-99.99,,,0.09,40,weatherlink.com 1.10,2013-06-09 21:15:00,
2013-06-09 17:30:00,78.0,76.0,30.03,SSE,167,0.0,-999.0,93,-99.99,,,0.09,49,weatherlink.com 1.10,2013-06-09 21:30:00,
2013-06-09 17:45:00,78.7,77.0,30.03,East,89,1.0,-999.0,93,-99.99,,,0.09,93,weatherlink.com 1.10,2013-06-09 21:45:00,
2013-06-09 18:00:00,79.0,77.0,30.03,East,100,1.0,-999.0,92,-99.99,,,0.09,244,weatherlink.com 1.10,2013-06-09 22:00:00,
2013-06-09 18:15:00,80.2,77.0,30.04,East,86,0.0,-999.0,90,-99.99,,,0.09,271,weatherlink.com 1.10,2013-06-09 22:15:00,
2013-06-09 18:30:00,80.7,77.0,30.03,ESE,104,0.0,-999.0,88,-99.99,,,0.09,334,weatherlink.com 1.10,2013-06-09 22:30:00,
2013-06-09 18:45:00,81.2,77.0,30.03,ENE,58,2.0,-999.0,86,-99.99,,,0.09,232,weatherlink.com 1.10,2013-06-09 22:45:00,
2013-06-09 19:00:00,81.5,77.0,30.03,ENE,71,3.0,-999.0,85,-99.99,,,0.09,142,weatherlink.com 1.10,2013-06-09 23:00:00,
2013-06-09 19:15:00,81.4,76.0,30.03,East,83,4.0,-999.0,84,-99.99,,,0.09,104,weatherlink.com 1.10,2013-06-09 23:15:00,
2013-06-09 19:30:00,81.4,76.0,30.03,East,89,2.0,-999.0,84,-99.99,,,0.09,42,weatherlink.com 1.10,2013-06-09 23:30:00,
2013-06-09 19:45:00,81.2,76.0,30.03,East,86,0.0,-999.0,84,-99.99,,,0.09,12,weatherlink.com 1.10,2013-06-09 23:45:00,
2013-06-09 20:00:00,81.0,76.0,30.04,East,95,5.0,-999.0,84,-99.99,,,0.09,5,weatherlink.com 1.10,2013-06-10 00:00:00,
2013-06-09 20:15:00,80.8,76.0,30.04,East,94,5.0,-999.0,85,-99.99,,,0.09,0,weatherlink.com 1.10,2013-06-10 00:15:00,
2013-06-09 20:30:00,80.7,76.0,30.04,SE,134,6.0,-999.0,85,-99.99,,,0.09,0,weatherlink.com 1.10,2013-06-10 00:30:00,
2013-06-09 20:45:00,80.7,76.0,30.04,East,87,0.0,-999.0,84,-99.99,,,0.09,0,weatherlink.com 1.10,2013-06-10 00:45:00,
2013-06-09 21:00:00,80.5,75.0,30.05,East,88,2.0,-999.0,83,-99.99,,,0.09,0,weatherlink.com 1.10,2013-06-10 01:00:00,
2013-06-09 21:15:00,80.6,75.0,30.06,East,85,4.0,-999.0,83,-99.99,,,0.09,0,weatherlink.com 1.10,2013-06-10 01:15:00,
2013-06-09 21:30:00,80.6,75.0,30.06,ENE,77,2.0,-999.0,83,-99.99,,,0.09,0,weatherlink.com 1.10,2013-06-10 01:30:00,
2013-06-09 21:45:00,80.7,75.0,30.06,ENE,77,4.0,-999.0,83,-99.99,,,0.09,0,weatherlink.com 1.10,2013-06-10 01:45:00,
2013-06-09 22:00:00,80.6,75.0,30.07,SE,126,0.0,-999.0,83,-99.99,,,0.09,0,weatherlink.com 1.10,2013-06-10 02:00:00,
2013-06-09 22:15:00,80.6,75.0,30.07,East,80,2.0,-999.0,83,-99.99,,,0.09,0,weatherlink.com 1.10,2013-06-10 02:15:00,
2013-06-09 22:30:00,80.6,75.0,30.08,East,95,5.0,-999.0,82,-99.99,,,0.09,0,weatherlink.com 1.10,2013-06-10 02:30:00,
2013-06-09 22:45:00,80.5,75.0,30.08,ESE,102,2.0,-999.0,82,-99.99,,,0.09,0,weatherlink.com 1.10,2013-06-10 02:45:00,
2013-06-09 23:00:00,80.7,76.0,30.08,East,90,0.0,-999.0,84,-99.99,,,0.09,0,weatherlink.com 1.10,2013-06-10 03:00:00,
2013-06-09 23:15:00,80.5,75.0,30.08,ESE,104,2.0,-999.0,84,-99.99,,,0.09,0,weatherlink.com 1.10,2013-06-10 03:15:00,
2013-06-09 23:30:00,80.4,76.0,30.09,East,96,0.0,-999.0,85,-99.99,,,0.10,0,weatherlink.com 1.10,2013-06-10 03:30:00,
2013-06-09 23:45:00,80.3,76.0,30.09,South,176,0.0,-999.0,85,-99.99,,,0.10,0,weatherlink.com 1.10,2013-06-10 03:45:00,